createdAt,value
2023-02-11T00:01:19.288Z,99590.31
2023-02-11T00:03:45.986Z,99584.31
2023-02-11T00:06:12.853Z,99583.44
2023-02-11T00:08:40.059Z,99575.72
2023-02-11T00:11:07.639Z,99578.31
2023-02-11T00:13:34.239Z,99576.59
2023-02-11T00:16:06.983Z,99576.59
2023-02-11T00:18:33.756Z,99577.41
2023-02-11T00:21:00.319Z,99562.03
2023-02-11T00:23:26.905Z,99573.13
2023-02-11T00:25:53.597Z,99569.72
2023-02-11T00:28:20.230Z,99569.69
2023-02-11T00:30:54.553Z,99562.88
2023-02-11T00:33:21.210Z,99562.84
2023-02-11T00:35:47.979Z,99559.44
2023-02-11T00:38:14.756Z,99561.13
2023-02-11T00:40:41.403Z,99556.88
2023-02-11T00:43:08.072Z,99554.31
2023-02-11T00:45:34.677Z,99552.63
2023-02-11T00:48:01.935Z,99557.75
2023-02-11T00:50:28.593Z,99550.91
2023-02-11T00:52:55.700Z,99545.75
2023-02-11T00:55:22.397Z,99540.59
2023-02-11T00:57:49.293Z,99543.16
2023-02-11T01:00:16.785Z,99543.19
2023-02-11T01:02:44.612Z,99538.94
2023-02-11T01:05:11.586Z,99540.59
2023-02-11T01:07:38.281Z,99538.06
2023-02-11T01:10:05.169Z,99527.81
2023-02-11T01:12:33.524Z,99525.22
2023-02-11T01:15:02.175Z,99520.09
2023-02-11T01:17:28.800Z,99523.50
2023-02-11T01:19:55.624Z,99508.09
2023-02-11T01:22:22.340Z,99508.97
2023-02-11T01:24:48.904Z,99497.88
2023-02-11T01:27:15.525Z,99495.28
2023-02-11T01:29:42.102Z,99492.75
2023-02-11T01:32:08.823Z,99486.75
2023-02-11T01:34:35.437Z,99487.59
2023-02-11T01:37:02.118Z,99490.19
2023-02-11T01:39:29.209Z,99479.94
2023-02-11T01:41:55.816Z,99483.31
2023-02-11T01:44:46.080Z,99474.78
2023-02-11T01:47:12.705Z,99476.50
2023-02-11T01:49:57.872Z,99475.63
2023-02-11T01:52:39.174Z,99468.75
2023-02-11T01:55:29.331Z,99463.63
2023-02-11T01:57:59.798Z,99463.63
2023-02-11T02:00:32.568Z,99465.38
2023-02-11T02:03:06.751Z,99461.09
2023-02-11T02:05:53.573Z,99466.19
2023-02-11T02:08:32.509Z,99466.19
2023-02-11T02:11:03.377Z,99461.09
2023-02-11T02:13:34.790Z,99465.34
2023-02-11T02:16:13.326Z,99458.47
2023-02-11T02:19:21.572Z,99457.66
2023-02-11T02:22:19.962Z,99451.66
2023-02-11T02:25:02.495Z,99455.06
2023-02-11T02:27:50.748Z,99443.97
2023-02-11T02:30:35.826Z,99446.53
2023-02-11T02:33:20.519Z,99441.41
2023-02-11T02:36:01.782Z,99435.44
2023-02-11T02:38:38.258Z,99428.56
2023-02-11T02:41:11.110Z,99441.41
2023-02-11T02:43:43.847Z,99434.53
2023-02-11T02:46:15.848Z,99431.94
2023-02-11T02:48:43.565Z,99432.81
2023-02-11T02:51:37.852Z,99436.19
2023-02-11T02:54:25.921Z,99437.94
2023-02-11T02:57:29.996Z,99425.97
2023-02-11T03:00:19.798Z,99425.09
2023-02-11T03:02:56.971Z,99417.41
2023-02-11T03:05:29.151Z,99424.25
2023-02-11T03:08:24.442Z,99427.66
2023-02-11T03:10:53.630Z,99421.63
2023-02-11T03:13:24.579Z,99419.94
2023-02-11T03:15:54.354Z,99418.22
2023-02-11T03:18:24.587Z,99413.91
2023-02-11T03:20:54.289Z,99412.25
2023-02-11T03:23:44.698Z,99416.50
2023-02-11T03:26:30.036Z,99420.72
2023-02-11T03:29:18.001Z,99417.28
2023-02-11T03:31:53.607Z,99417.25
2023-02-11T03:34:38.209Z,99407.84
2023-02-11T03:37:19.676Z,99407.03
2023-02-11T03:40:01.784Z,99401.00
2023-02-11T03:42:34.980Z,99396.81
2023-02-11T03:45:08.174Z,99398.50
2023-02-11T03:47:38.315Z,99395.06
2023-02-11T03:50:07.676Z,99396.72
2023-02-11T03:52:36.547Z,99386.47
2023-02-11T03:55:08.914Z,99393.28
2023-02-11T03:57:35.649Z,99383.00
2023-02-11T04:00:02.243Z,99391.56
2023-02-11T04:02:38.972Z,99381.34
2023-02-11T04:05:07.623Z,99388.13
2023-02-11T04:07:34.316Z,99394.94
2023-02-11T04:10:01.245Z,99382.97
2023-02-11T04:12:27.844Z,99377.97
2023-02-11T04:14:54.452Z,99383.09
2023-02-11T04:17:21.079Z,99381.34
2023-02-11T04:19:47.650Z,99378.72
2023-02-11T04:22:14.337Z,99383.78
2023-02-11T04:24:40.899Z,99376.06
2023-02-11T04:27:07.513Z,99368.41
2023-02-11T04:29:34.276Z,99368.38
2023-02-11T04:32:00.948Z,99371.81
2023-02-11T04:34:27.699Z,99364.16
2023-02-11T04:36:54.354Z,99361.59
2023-02-11T04:39:21.029Z,99361.53
2023-02-11T04:41:47.647Z,99357.31
2023-02-11T04:44:14.387Z,99364.16
2023-02-11T04:46:40.955Z,99354.81
2023-02-11T04:49:07.526Z,99353.84
2023-02-11T04:51:34.295Z,99350.47
2023-02-11T04:54:00.984Z,99344.41
2023-02-11T04:56:27.592Z,99350.44
2023-02-11T04:58:54.249Z,99346.19
2023-02-11T05:01:20.956Z,99342.75
2023-02-11T05:03:47.693Z,99339.34
2023-02-11T05:06:14.295Z,99341.06
2023-02-11T05:08:41.187Z,99332.59
2023-02-11T05:11:08.779Z,99335.94
2023-02-11T05:13:35.407Z,99335.94
2023-02-11T05:16:02.176Z,99328.28
2023-02-11T05:18:28.769Z,99324.03
2023-02-11T05:20:55.373Z,99329.16
2023-02-11T05:23:22.023Z,99328.34
2023-02-11T05:25:48.823Z,99329.97
2023-02-11T05:28:17.052Z,99318.91
2023-02-11T05:30:43.726Z,99327.50
2023-02-11T05:33:10.331Z,99326.63
2023-02-11T05:35:36.956Z,99333.38
2023-02-11T05:38:03.533Z,99347.03
2023-02-11T05:40:30.303Z,99335.88
2023-02-11T05:42:56.900Z,99336.75
2023-02-11T05:45:23.524Z,99338.44
2023-02-11T05:47:50.255Z,99337.63
2023-02-11T05:50:17.028Z,99327.41
2023-02-11T05:52:43.584Z,99334.25
2023-02-11T05:55:10.390Z,99331.72
2023-02-11T05:57:37.001Z,99339.44
2023-02-11T06:00:04.721Z,99337.72
2023-02-11T06:02:39.507Z,99332.69
2023-02-11T06:05:06.783Z,99325.03
2023-02-11T06:07:33.515Z,99334.44
2023-02-11T06:10:00.448Z,99338.66
2023-02-11T06:12:27.395Z,99334.41
2023-02-11T06:14:54.213Z,99331.81
2023-02-11T06:17:20.783Z,99323.31
2023-02-11T06:19:47.370Z,99328.44
2023-02-11T06:22:13.985Z,99325.88
2023-02-11T06:24:59.863Z,99313.94
2023-02-11T06:27:27.487Z,99313.13
2023-02-11T06:29:54.140Z,99322.56
2023-02-11T06:32:42.084Z,99310.63
2023-02-11T06:35:10.050Z,99301.22
2023-02-11T06:37:38.380Z,99306.38
2023-02-11T06:40:05.378Z,99300.44
2023-02-11T06:42:31.973Z,99304.72
2023-02-11T06:44:58.703Z,99310.69
2023-02-11T06:47:25.373Z,99316.69
2023-02-11T06:49:52.013Z,99302.13
2023-02-11T06:52:18.580Z,99308.97
2023-02-11T06:54:45.174Z,99314.03
2023-02-11T06:57:11.839Z,99309.72
2023-02-11T06:59:38.512Z,99318.22
2023-02-11T07:02:05.146Z,99309.56
2023-02-11T07:04:31.848Z,99306.06
2023-02-11T07:06:58.449Z,99311.16
2023-02-11T07:09:25.046Z,99313.63
2023-02-11T07:11:51.636Z,99311.78
2023-02-11T07:14:18.281Z,99309.91
2023-02-11T07:16:44.884Z,99298.66
2023-02-11T07:19:11.467Z,99308.78
2023-02-11T07:21:38.067Z,99307.91
2023-02-11T07:24:11.453Z,99300.97
2023-02-11T07:26:38.711Z,99306.97
2023-02-11T07:29:05.323Z,99301.78
2023-02-11T07:31:32.374Z,99305.16
2023-02-11T07:34:01.860Z,99299.25
2023-02-11T07:36:31.781Z,99302.72
2023-02-11T07:39:00.119Z,99295.69
2023-02-11T07:41:27.637Z,99311.56
2023-02-11T07:43:54.519Z,99317.09
2023-02-11T07:46:23.787Z,99311.72
2023-02-11T07:48:51.018Z,99309.06
2023-02-11T07:51:23.677Z,99301.94
2023-02-11T07:53:50.694Z,99304.47
2023-02-11T07:56:18.865Z,99293.47
2023-02-11T07:58:45.849Z,99292.34
2023-02-11T08:01:15.477Z,99289.44
2023-02-11T08:03:42.878Z,99291.88
2023-02-11T08:06:15.142Z,99289.44
2023-02-11T08:08:42.490Z,99286.03
2023-02-11T08:11:11.647Z,99284.50
2023-02-11T08:13:38.696Z,99289.44
2023-02-11T08:16:06.563Z,99299.41
2023-02-11T08:18:34.002Z,99289.72
2023-02-11T08:21:07.794Z,99300.19
2023-02-11T08:23:37.460Z,99306.03
2023-02-11T08:26:05.887Z,99309.31
2023-02-11T08:28:36.715Z,99301.47
2023-02-11T08:31:12.417Z,99291.31
2023-02-11T08:33:40.961Z,99283.94
2023-02-11T08:36:29.057Z,99276.34
2023-02-11T08:39:12.155Z,99274.78
2023-02-11T08:41:44.898Z,99281.72
2023-02-11T08:44:12.115Z,99282.94
2023-02-11T08:46:38.741Z,99288.94
2023-02-11T08:49:05.369Z,99287.53
2023-02-11T08:51:33.005Z,99277.94
2023-02-11T08:54:00.729Z,99277.78
2023-02-11T08:56:28.666Z,99274.09
2023-02-11T08:58:55.344Z,99276.50
2023-02-11T09:01:27.474Z,99279.34
2023-02-11T09:03:54.532Z,99280.72
2023-02-11T09:06:22.978Z,99275.66
2023-02-11T09:08:52.235Z,99275.63
2023-02-11T09:11:24.903Z,99271.84
2023-02-11T09:13:54.180Z,99262.38
2023-02-11T09:16:23.783Z,99266.75
2023-02-11T09:18:50.806Z,99263.81
2023-02-11T09:21:19.632Z,99270.25
2023-02-11T09:23:47.855Z,99269.31
2023-02-11T09:26:16.950Z,99265.31
2023-02-11T09:28:43.966Z,99256.06
2023-02-11T09:31:13.989Z,99263.91
2023-02-11T09:33:47.897Z,99256.66
2023-02-11T09:36:17.751Z,99250.75
2023-02-11T09:38:44.751Z,99240.41
2023-02-11T09:41:23.533Z,99226.38
2023-02-11T09:43:58.655Z,99233.25
2023-02-11T09:46:30.188Z,99236.72
2023-02-11T09:48:57.065Z,99237.91
2023-02-11T09:51:29.772Z,99245.81
2023-02-11T09:54:03.128Z,99239.28
2023-02-11T09:56:31.512Z,99228.72
2023-02-11T09:58:58.150Z,99232.16
2023-02-11T10:01:54.290Z,99228.91
2023-02-11T10:04:48.786Z,99216.69
2023-02-11T10:07:34.471Z,99207.94
2023-02-11T10:10:15.474Z,99197.50
2023-02-11T10:12:51.047Z,99189.47
2023-02-11T10:15:45.489Z,99193.47
2023-02-11T10:18:41.390Z,99205.31
2023-02-11T10:21:17.212Z,99193.31
2023-02-11T10:23:49.397Z,99188.66
2023-02-11T10:26:18.360Z,99183.56
2023-02-11T10:28:48.510Z,99170.50
2023-02-11T10:31:20.855Z,99171.06
2023-02-11T10:33:56.728Z,99176.34
2023-02-11T10:36:34.266Z,99155.88
2023-02-11T10:39:10.037Z,99159.13
2023-02-11T10:41:41.901Z,99150.66
2023-02-11T10:44:08.484Z,99152.66
2023-02-11T10:46:40.208Z,99140.28
2023-02-11T10:49:06.928Z,99127.63
2023-02-11T10:51:34.313Z,99123.81
2023-02-11T10:54:03.633Z,99128.50
2023-02-11T10:56:34.324Z,99124.84
2023-02-11T10:59:28.530Z,99123.94
2023-02-11T11:02:06.019Z,99120.50
2023-02-11T11:04:42.745Z,99111.66
2023-02-11T11:07:21.706Z,99100.38
2023-02-11T11:09:55.633Z,99094.84
2023-02-11T11:12:46.073Z,99111.97
2023-02-11T11:15:21.745Z,99113.31
2023-02-11T11:18:21.023Z,99120.50
2023-02-11T11:20:58.735Z,99100.63
2023-02-11T11:23:27.291Z,99096.91
2023-02-11T11:26:10.047Z,99082.34
2023-02-11T11:28:42.767Z,99083.69
2023-02-11T11:31:16.072Z,99077.16
2023-02-11T11:33:46.479Z,99075.44
2023-02-11T11:36:40.117Z,99063.44
2023-02-11T11:39:33.844Z,99068.19
2023-02-11T11:42:04.312Z,99062.78
2023-02-11T11:44:35.840Z,99060.72
2023-02-11T11:47:11.214Z,99053.66
2023-02-11T11:49:45.404Z,99049.59
2023-02-11T11:52:29.232Z,99050.44
2023-02-11T11:55:13.116Z,99033.47
2023-02-11T11:57:40.385Z,99029.34
2023-02-11T12:00:19.228Z,99023.91
2023-02-11T12:02:52.017Z,99012.31
2023-02-11T12:05:29.390Z,99012.63
2023-02-11T12:08:24.638Z,99021.03
2023-02-11T12:10:56.912Z,99023.56
2023-02-11T12:13:41.865Z,99018.03
2023-02-11T12:16:19.548Z,99017.13
2023-02-11T12:19:13.918Z,99004.88
2023-02-11T12:22:10.348Z,98985.44
2023-02-11T12:24:55.538Z,98986.66
2023-02-11T12:27:28.206Z,98979.09
2023-02-11T12:30:03.665Z,98975.94
2023-02-11T12:32:31.823Z,98980.66
2023-02-11T12:35:37.275Z,98978.06
2023-02-11T12:38:28.972Z,98973.06
2023-02-11T12:41:10.514Z,98958.84
2023-02-11T12:43:39.378Z,98948.00
2023-02-11T12:46:47.695Z,98955.03
2023-02-11T12:49:42.187Z,98944.47
2023-02-11T12:52:20.106Z,98950.13
2023-02-11T12:54:58.188Z,98948.19
2023-02-11T12:57:28.140Z,98942.88
2023-02-11T13:00:25.197Z,98930.63
2023-02-11T13:03:18.099Z,98927.69
2023-02-11T13:05:49.620Z,98924.28
2023-02-11T13:08:18.085Z,98906.66
2023-02-11T13:10:54.001Z,98914.63
2023-02-11T13:13:30.597Z,98897.66
2023-02-11T13:16:10.081Z,98909.59
2023-02-11T13:18:40.810Z,98894.88
2023-02-11T13:21:16.489Z,98899.13
2023-02-11T13:24:19.382Z,98887.63
2023-02-11T13:26:51.352Z,98889.25
2023-02-11T13:29:25.971Z,98886.22
2023-02-11T13:31:54.690Z,98884.41
2023-02-11T13:34:34.276Z,98881.84
2023-02-11T13:37:00.920Z,98887.06
2023-02-11T13:39:27.601Z,98891.50
2023-02-11T13:42:03.066Z,98887.47
2023-02-11T13:44:29.989Z,98898.41
2023-02-11T13:47:01.447Z,98900.28
2023-02-11T13:49:40.792Z,98893.16
2023-02-11T13:52:42.686Z,98887.91
2023-02-11T13:55:21.477Z,98904.19
2023-02-11T13:58:07.985Z,98899.34
2023-02-11T14:00:34.656Z,98896.31
2023-02-11T14:03:31.991Z,98914.34
2023-02-11T14:06:26.699Z,98926.84
2023-02-11T14:09:13.513Z,98904.75
2023-02-11T14:11:40.815Z,98894.75
2023-02-11T14:14:34.955Z,98903.38
2023-02-11T14:17:07.691Z,98906.75
2023-02-11T14:19:35.749Z,98905.91
2023-02-11T14:22:19.253Z,98916.91
2023-02-11T14:24:48.871Z,98916.91
2023-02-11T14:27:23.117Z,98912.84
2023-02-11T14:29:51.088Z,98915.53
2023-02-11T14:32:49.141Z,98917.47
2023-02-11T14:35:33.685Z,98903.84
2023-02-11T14:38:22.181Z,98899.06
2023-02-11T14:41:00.202Z,98906.66
2023-02-11T14:43:41.099Z,98900.16
2023-02-11T14:46:08.845Z,98899.09
2023-02-11T14:48:37.954Z,98896.56
2023-02-11T14:51:19.160Z,98895.69
2023-02-11T14:53:49.963Z,98891.50
2023-02-11T14:56:22.096Z,98896.41
2023-02-11T14:58:51.636Z,98906.34
2023-02-11T15:01:41.636Z,98902.13
2023-02-11T15:04:29.544Z,98899.38
2023-02-11T15:06:59.519Z,98897.59
2023-02-11T15:09:42.828Z,98892.84
2023-02-11T15:12:23.813Z,98900.59
2023-02-11T15:14:58.102Z,98905.50
2023-02-11T15:17:27.734Z,98907.78
2023-02-11T15:19:57.945Z,98898.19
2023-02-11T15:22:27.332Z,98898.44
2023-02-11T15:25:07.767Z,98899.28
2023-02-11T15:27:45.636Z,98896.75
2023-02-11T15:30:34.091Z,98895.16
2023-02-11T15:33:03.556Z,98897.66
2023-02-11T15:35:37.167Z,98897.53
2023-02-11T15:38:04.788Z,98904.59
2023-02-11T15:40:34.841Z,98911.53
2023-02-11T15:43:04.315Z,98915.53
2023-02-11T15:45:34.720Z,98925.25
2023-02-11T15:48:23.256Z,98932.00
2023-02-11T15:50:59.104Z,98927.44
2023-02-11T15:53:33.344Z,98919.84
2023-02-11T15:56:08.683Z,98912.06
2023-02-11T15:58:40.752Z,98916.09
2023-02-11T16:01:08.828Z,98917.19
2023-02-11T16:03:35.720Z,98916.00
2023-02-11T16:06:34.910Z,98925.56
2023-02-11T16:09:05.903Z,98918.22
2023-02-11T16:11:48.448Z,98925.59
2023-02-11T16:14:27.128Z,98921.38
2023-02-11T16:17:02.235Z,98918.81
2023-02-11T16:19:30.186Z,98925.50
2023-02-11T16:21:59.935Z,98921.94
2023-02-11T16:24:30.753Z,98928.06
2023-02-11T16:27:02.757Z,98935.56
2023-02-11T16:29:31.798Z,98925.13
2023-02-11T16:32:08.639Z,98926.03
2023-02-11T16:34:36.075Z,98922.00
2023-02-11T16:37:06.208Z,98930.19
2023-02-11T16:39:33.134Z,98915.53
2023-02-11T16:42:00.348Z,98925.59
2023-02-11T16:44:27.277Z,98925.72
2023-02-11T16:46:54.668Z,98923.28
2023-02-11T16:49:28.124Z,98927.50
2023-02-11T16:52:01.057Z,98919.44
2023-02-11T16:54:29.475Z,98928.50
2023-02-11T16:56:56.969Z,98930.34
2023-02-11T16:59:23.837Z,98908.22
2023-02-11T17:01:53.109Z,98906.16
2023-02-11T17:04:31.172Z,98910.59
2023-02-11T17:06:58.702Z,98905.94
2023-02-11T17:09:30.358Z,98909.09
2023-02-11T17:11:57.747Z,98908.50
2023-02-11T17:14:24.641Z,98894.25
2023-02-11T17:16:51.351Z,98898.84
2023-02-11T17:19:21.101Z,98898.13
2023-02-11T17:21:50.069Z,98893.28
2023-02-11T17:24:16.834Z,98891.72
2023-02-11T17:26:44.994Z,98885.69
2023-02-11T17:29:15.132Z,98880.72
2023-02-11T17:31:41.981Z,98879.13
2023-02-11T17:34:09.076Z,98894.09
2023-02-11T17:36:36.353Z,98905.44
2023-02-11T17:39:06.313Z,98901.63
2023-02-11T17:41:34.401Z,98911.22
2023-02-11T17:44:01.459Z,98922.44
2023-02-11T17:46:28.662Z,98924.06
2023-02-11T17:48:56.096Z,98911.81
2023-02-11T17:51:32.016Z,98901.91
2023-02-11T17:54:01.749Z,98909.06
2023-02-11T17:56:31.159Z,98909.31
2023-02-11T17:58:57.852Z,98910.28
2023-02-11T18:01:27.555Z,98910.25
2023-02-11T18:03:54.211Z,98904.03
2023-02-11T18:06:21.618Z,98917.97
2023-02-11T18:08:48.606Z,98910.81
2023-02-11T18:11:16.476Z,98914.94
2023-02-11T18:13:44.135Z,98917.19
2023-02-11T18:16:15.732Z,98917.66
2023-02-11T18:18:43.504Z,98930.19
2023-02-11T18:21:15.797Z,98936.34
2023-02-11T18:23:43.323Z,98942.59
2023-02-11T18:26:12.192Z,98942.59
2023-02-11T18:28:39.043Z,98942.19
2023-02-11T18:31:06.822Z,98944.88
2023-02-11T18:33:34.063Z,98946.81
2023-02-11T18:36:06.293Z,98937.91
2023-02-11T18:38:33.371Z,98929.56
2023-02-11T18:41:00.115Z,98917.88
2023-02-11T18:43:31.527Z,98915.53
2023-02-11T18:45:58.178Z,98911.72
2023-02-11T18:48:27.072Z,98920.63
2023-02-11T18:50:54.874Z,98924.53
2023-02-11T18:53:22.373Z,98936.91
2023-02-11T18:55:49.510Z,98930.34
2023-02-11T18:58:16.229Z,98929.81
2023-02-11T19:00:45.576Z,98932.81
2023-02-11T19:03:12.378Z,98934.75
2023-02-11T19:05:42.703Z,98947.03
2023-02-11T19:08:09.392Z,98949.09
2023-02-11T19:10:40.236Z,98961.94
2023-02-11T19:13:06.937Z,98958.63
2023-02-11T19:15:33.581Z,98959.66
2023-02-11T19:18:00.154Z,98963.22
2023-02-11T19:20:27.188Z,98971.91
2023-02-11T19:22:53.779Z,98957.22
2023-02-11T19:25:20.347Z,98967.94
2023-02-11T19:27:46.904Z,98972.34
2023-02-11T19:30:13.776Z,98961.59
2023-02-11T19:32:40.353Z,98969.44
2023-02-11T19:35:07.388Z,98966.41
2023-02-11T19:37:33.970Z,98978.59
2023-02-11T19:40:00.582Z,98976.81
2023-02-11T19:42:27.696Z,98987.28
2023-02-11T19:44:54.405Z,98990.56
2023-02-11T19:47:27.530Z,98986.66
2023-02-11T19:49:54.207Z,98989.31
2023-02-11T19:52:20.843Z,98977.06
2023-02-11T19:54:47.496Z,98964.53
2023-02-11T19:57:14.083Z,98984.56
2023-02-11T19:59:40.815Z,98968.69
2023-02-11T20:02:08.051Z,98961.31
2023-02-11T20:04:34.681Z,98966.50
2023-02-11T20:07:01.256Z,98979.72
2023-02-11T20:09:29.063Z,98983.13
2023-02-11T20:11:55.639Z,98986.88
2023-02-11T20:14:22.253Z,98985.19
2023-02-11T20:16:50.087Z,98989.59
2023-02-11T20:19:21.318Z,98978.19
2023-02-11T20:21:51.101Z,98985.19
2023-02-11T20:24:19.145Z,98980.06
2023-02-11T20:26:48.167Z,98992.16
2023-02-11T20:29:17.313Z,98970.63
2023-02-11T20:31:44.136Z,98972.28
2023-02-11T20:34:12.090Z,98972.31
2023-02-11T20:36:40.256Z,98981.88
2023-02-11T20:39:07.602Z,98985.47
2023-02-11T20:41:36.448Z,98982.97
2023-02-11T20:44:06.447Z,98979.53
2023-02-11T20:46:34.250Z,98984.88
2023-02-11T20:49:02.281Z,98990.72
2023-02-11T20:51:31.684Z,98990.00
2023-02-11T20:53:59.009Z,98992.50
2023-02-11T20:56:28.751Z,98988.16
2023-02-11T20:58:57.735Z,98985.75
2023-02-11T21:01:33.968Z,98983.13
2023-02-11T21:04:10.848Z,98978.66
2023-02-11T21:06:41.278Z,98980.38
2023-02-11T21:09:09.700Z,98982.88
2023-02-11T21:11:36.320Z,98983.59
2023-02-11T21:14:03.162Z,98972.75
2023-02-11T21:16:29.988Z,98977.00
2023-02-11T21:18:56.903Z,98983.19
2023-02-11T21:21:23.804Z,98975.84
2023-02-11T21:23:50.418Z,98976.03
2023-02-11T21:26:17.292Z,98977.84
2023-02-11T21:28:44.078Z,98970.72
2023-02-11T21:31:19.750Z,98975.28
2023-02-11T21:33:46.573Z,98960.19
2023-02-11T21:36:14.899Z,98973.75
2023-02-11T21:38:41.861Z,98977.13
2023-02-11T21:41:08.710Z,98982.31
2023-02-11T21:43:35.441Z,98982.84
2023-02-11T21:46:08.386Z,98988.84
2023-02-11T21:48:35.141Z,98989.19
2023-02-11T21:51:06.250Z,98985.69
2023-02-11T21:53:33.333Z,98985.88
2023-02-11T21:56:18.561Z,98993.53
2023-02-11T21:58:46.223Z,99003.88
2023-02-11T22:01:17.326Z,98989.41
2023-02-11T22:03:44.928Z,98994.34
2023-02-11T22:06:14.384Z,98999.19
2023-02-11T22:08:41.433Z,98998.53
2023-02-11T22:11:12.215Z,99000.28
2023-02-11T22:13:39.338Z,99002.06
2023-02-11T22:16:11.922Z,99010.78
2023-02-11T22:18:39.685Z,99008.88
2023-02-11T22:21:12.382Z,99007.97
2023-02-11T22:23:39.609Z,99001.88
2023-02-11T22:26:09.261Z,99006.13
2023-02-11T22:28:38.813Z,99012.94
2023-02-11T22:31:05.490Z,99010.16
2023-02-11T22:33:32.192Z,99011.78
2023-02-11T22:36:04.820Z,99003.28
2023-02-11T22:38:32.643Z,99008.63
2023-02-11T22:41:00.537Z,99008.53
2023-02-11T22:43:27.512Z,99004.28
2023-02-11T22:45:56.452Z,99012.22
2023-02-11T22:48:23.357Z,99019.06
2023-02-11T22:50:49.989Z,99021.63
2023-02-11T22:53:16.630Z,99018.00
2023-02-11T22:55:43.494Z,99019.50
2023-02-11T22:58:10.171Z,99030.69
2023-02-11T23:00:42.116Z,99015.16
2023-02-11T23:03:10.235Z,99025.06
2023-02-11T23:05:41.271Z,99022.97
2023-02-11T23:08:10.251Z,99019.50
2023-02-11T23:10:38.610Z,99018.38
2023-02-11T23:13:06.982Z,99013.06
2023-02-11T23:15:33.932Z,99019.06
2023-02-11T23:18:00.588Z,99015.44
2023-02-11T23:20:27.232Z,99016.78
2023-02-11T23:22:53.840Z,99031.41
2023-02-11T23:25:20.483Z,99037.16
2023-02-11T23:27:47.085Z,99022.47
2023-02-11T23:30:14.271Z,99025.19
2023-02-11T23:32:40.954Z,99033.53
2023-02-11T23:35:08.087Z,99043.75
2023-02-11T23:37:34.756Z,99041.88
2023-02-11T23:40:01.373Z,99050.53
2023-02-11T23:42:29.167Z,99045.41
2023-02-11T23:44:55.783Z,99053.91
2023-02-11T23:47:22.341Z,99054.19
2023-02-11T23:49:48.917Z,99060.41
2023-02-11T23:52:15.495Z,99063.09
2023-02-11T23:54:43.348Z,99075.84
2023-02-11T23:57:10.040Z,99072.59
2023-02-11T23:59:36.633Z,99075.69
